Terminal Aerodrome Forecast
Issued by NWS Sioux Falls, SD

Home | Current Version | Previous Version | Text Only | Print | Product List | Glossary On
Versions: 1 2 3 4 5 6 7 8 9 10 11 12 13 14 15 16 17 18
000
FTUS43 KFSD 230500 RRA
TAFHON
TAF
KHON 230543Z 2306/2406 09007KT P6SM BKN035
     FM231000 08009KT P6SM -SHRA SCT015 OVC035
      TEMPO 2312/2315 2SM RA BR BKN015
     FM231500 10010KT 5SM -SHRA BR BKN015 OVC035
     FM231900 14013G21KT P6SM BKN035
      TEMPO 2321/2324 2SM TSRA BKN020CB
     FM240100 17008KT P6SM SCT040 BKN070=

USA.gov is the U.S. government's official web portal to all federal, state and local government web resources and services.